Time;durP1;ratioP1;P1;durP2;ratioP2;P2;SDS_P1;SDS_P2;PMS_P1;PMS_P2;Temp;Humidity;BMP_temperature;BMP_pressure;BME280_temperature;BME280_humidity;BME280_pressure;Samples;Min_cycle;Max_cycle;Signal;HPM_P1;HPM_P2
2024/03/11 00:23:22;;;;;;;;;;;;;;;;;;;;;
2024/03/11 00:29:55;;;;;;;0.60;0.50;;;;;;;9.61;64.75;93600.50;5031407;28;20238;-91
2024/03/11 00:32:37;;;;;;;0.50;0.50;;;;;;;9.63;64.86;93593.34;4951728;29;20324;-91
2024/03/11 00:44:49;;;;;;;0.50;0.50;;;;;;;9.68;63.93;93567.00;4990351;28;20266;-92
2024/03/11 02:48:35;;;;;;;;;;;;;;;;;;;;;
2024/03/11 02:52:03;;;;;;;0.97;0.90;;;;;;;9.09;63.41;93624.25;4986884;28;20198;-91
2024/03/11 04:14:54;;;;;;;;;;;;;;;;;;;;;
2024/03/11 04:21:43;;;;;;;;;;;;;;;;;;;;;
2024/03/11 04:28:36;;;;;;;6.27;3.33;;;;;;;8.00;65.96;93848.59;4912269;29;20261;-90
2024/03/11 04:45:30;;;;;;;3.77;2.73;;;;;;;8.21;64.97;93838.06;4855825;29;20219;-91
2024/03/11 04:55:50;;;;;;;1.70;1.60;;;;;;;8.20;64.96;93864.69;4947666;28;20286;-91
2024/03/11 05:02:38;;;;;;;;;;;;;;;;;;;;;
2024/03/11 09:26:53;;;;;;;0.90;0.80;;;;;;;16.85;44.53;93127.69;5267854;22;20233;-86
2024/03/11 09:29:21;;;;;;;0.95;0.90;;;;;;;17.02;43.85;93086.44;5031720;28;20782;-85
2024/03/11 09:31:47;;;;;;;0.70;0.70;;;;;;;17.14;43.13;93047.03;5005353;28;20686;-85
2024/03/11 09:34:14;;;;;;;1.20;0.80;;;;;;;17.27;43.06;93041.19;5031973;28;20206;-86
2024/03/11 09:36:42;;;;;;;1.73;0.80;;;;;;;17.42;42.97;93040.19;5033275;28;20201;-85
2024/03/11 09:39:11;;;;;;;0.80;0.80;;;;;;;17.34;42.46;92997.38;5027341;28;20203;-87
2024/03/11 09:41:41;;;;;;;0.80;0.80;;;;;;;17.45;41.89;92972.00;5031597;28;20829;-85
2024/03/11 09:44:15;;;;;;;3.58;0.85;;;;;;;17.51;40.65;92919.59;5033197;28;20698;-85
2024/03/11 09:46:45;;;;;;;0.82;0.60;;;;;;;17.46;40.30;92875.50;5033516;28;20294;-86
2024/03/11 09:49:14;;;;;;;0.60;0.60;;;;;;;17.52;40.72;92886.56;5023273;28;20297;-86
2024/03/11 09:51:45;;;;;;;0.60;0.60;;;;;;;17.39;40.53;92882.09;5013412;28;20721;-86
2024/03/11 09:54:16;;;;;;;2.78;2.53;;;;;;;17.41;40.55;92888.56;5013150;28;20207;-85
2024/03/11 09:56:45;;;;;;;0.70;0.70;;;;;;;17.27;39.86;92859.16;5013052;28;20214;-85
2024/03/11 09:59:18;;;;;;;0.75;0.75;;;;;;;17.29;40.70;92898.66;5012474;28;20286;-87
2024/03/11 10:01:49;;;;;;;1.17;0.70;;;;;;;17.49;40.81;92919.16;5013878;28;20299;-85
2024/03/11 10:04:18;;;;;;;0.60;0.60;;;;;;;17.49;39.73;92832.53;5013220;28;20203;-85
2024/03/11 10:06:44;;;;;;;0.70;0.70;;;;;;;17.42;39.52;92812.09;5014508;28;20211;-86
2024/03/11 10:09:18;;;;;;;1.23;0.70;;;;;;;17.37;40.72;92877.19;5013506;28;20229;-85
2024/03/11 10:12:00;;;;;;;1.02;0.90;;;;;;;17.33;40.71;92904.03;5018387;28;20582;-85
2024/03/11 10:14:31;;;;;;;1.33;0.60;;;;;;;17.37;40.17;92881.59;5033836;28;20237;-86
2024/03/11 10:17:20;;;;;;;1.42;0.75;;;;;;;17.10;40.11;92862.28;5032863;28;20553;-85
2024/03/11 10:19:47;;;;;;;1.83;0.63;;;;;;;17.27;40.36;92885.94;5033949;28;20615;-85
2024/03/11 10:22:22;;;;;;;1.05;0.70;;;;;;;17.41;39.67;92867.00;5033309;28;20241;-87
2024/03/11 10:24:49;;;;;;;1.30;0.65;;;;;;;17.50;39.91;92857.50;5019834;28;20285;-86
2024/03/11 10:27:22;;;;;;;0.70;0.70;;;;;;;17.55;39.83;92862.59;5017960;28;20249;-86
2024/03/11 10:29:50;;;;;;;0.98;0.70;;;;;;;17.69;40.14;92855.63;5014714;28;20277;-85
2024/03/11 10:32:38;;;;;;;0.77;0.63;;;;;;;17.67;39.78;92868.16;5013209;28;20225;-86
2024/03/11 10:35:08;;;;;;;0.60;0.60;;;;;;;17.82;40.29;92904.31;5022245;28;20211;-86
2024/03/11 10:37:37;;;;;;;0.80;0.80;;;;;;;17.63;39.52;92854.13;5031233;28;20264;-85
2024/03/11 10:40:10;;;;;;;0.55;0.55;;;;;;;17.64;39.35;92836.69;5033537;28;20257;-85
2024/03/11 10:42:37;;;;;;;1.70;0.80;;;;;;;17.72;39.33;92833.44;5035091;28;20577;-86
2024/03/11 10:45:06;;;;;;;1.67;0.70;;;;;;;17.74;39.21;92828.72;5034890;28;20207;-86
2024/03/11 10:47:33;;;;;;;0.60;0.60;;;;;;;17.73;39.38;92837.59;5033914;28;20217;-86
2024/03/11 10:50:00;;;;;;;0.85;0.70;;;;;;;17.85;40.31;92911.56;5016727;28;20219;-85
2024/03/11 10:52:33;;;;;;;0.70;0.70;;;;;;;17.88;40.03;92892.75;5015576;28;20206;-86
2024/03/11 10:55:02;;;;;;;1.52;0.60;;;;;;;17.74;38.99;92823.50;5014610;28;20786;-86
2024/03/11 10:57:35;;;;;;;0.85;0.60;;;;;;;17.32;39.71;92848.66;5015089;28;20242;-86
2024/03/11 11:00:09;;;;;;;2.97;1.00;;;;;;;17.46;40.39;92911.91;5015508;28;20257;-85
2024/03/11 11:02:41;;;;;;;0.95;0.80;;;;;;;17.77;40.24;92925.22;5014688;28;20207;-85
2024/03/11 11:05:09;;;;;;;0.98;0.80;;;;;;;18.07;39.62;92889.31;5012814;28;20582;-85
2024/03/11 11:07:35;;;;;;;1.17;0.80;;;;;;;18.21;40.16;92927.31;5011623;28;20315;-86
2024/03/11 11:10:04;;;;;;;0.73;0.70;;;;;;;18.34;39.68;92910.13;5011861;28;20281;-86
2024/03/11 11:12:31;;;;;;;0.82;0.80;;;;;;;18.29;38.79;92819.06;5022375;28;20580;-86
2024/03/11 11:15:00;;;;;;;1.15;0.60;;;;;;;17.87;38.85;92823.56;5031292;28;20198;-85
2024/03/11 11:17:29;;;;;;;0.85;0.80;;;;;;;18.02;39.40;92864.13;5032068;28;20596;-85
2024/03/11 11:19:58;;;;;;;1.05;0.82;;;;;;;17.68;39.51;92867.09;5027794;28;20241;-85
2024/03/11 11:22:26;;;;;;;10.98;9.80;;;;;;;17.81;40.03;92907.19;5013047;28;20237;-87
2024/03/11 11:24:53;;;;;;;7.25;6.55;;;;;;;17.78;39.71;92882.50;5013649;28;20657;-86
2024/03/11 11:27:24;;;;;;;1.50;1.40;;;;;;;17.98;39.83;92901.44;5014572;28;20230;-86
2024/03/11 11:29:52;;;;;;;1.17;1.08;;;;;;;18.11;39.46;92870.19;5016339;28;20218;-86
2024/03/11 11:32:21;;;;;;;1.02;0.80;;;;;;;17.96;39.17;92844.47;5024507;28;20273;-86
2024/03/11 11:34:52;;;;;;;2.03;0.80;;;;;;;17.95;38.67;92814.28;5029450;28;20206;-85
2024/03/11 11:37:39;;;;;;;0.73;0.73;;;;;;;17.94;37.83;92763.28;5030872;28;20222;-86
2024/03/11 11:40:32;;;;;;;1.92;1.58;;;;;;;17.84;38.50;92789.50;5030641;28;20198;-86
2024/03/11 11:42:59;;;;;;;1.80;1.55;;;;;;;17.84;39.96;92868.38;5031006;28;20198;-85
2024/03/11 11:45:50;;;;;;;0.80;0.80;;;;;;;18.07;39.35;92868.50;5031019;28;20206;-85
2024/03/11 11:48:21;;;;;;;1.17;0.70;;;;;;;18.01;38.75;92822.78;5028121;28;20222;-86
2024/03/11 11:50:47;;;;;;;1.30;0.77;;;;;;;18.30;39.66;92857.84;5011096;28;20296;-85
2024/03/11 11:53:26;;;;;;;0.60;0.60;;;;;;;18.51;38.42;92810.53;5012166;28;20237;-86
2024/03/11 11:55:52;;;;;;;1.13;0.70;;;;;;;18.54;38.11;92781.31;5011337;28;20242;-86
2024/03/11 11:58:18;;;;;;;0.90;0.90;;;;;;;18.66;38.26;92804.28;5012294;28;20230;-84
2024/03/11 12:00:45;;;;;;;1.05;0.70;;;;;;;18.50;37.81;92755.06;5014915;28;20207;-85
2024/03/11 12:03:27;;;;;;;2.30;0.75;;;;;;;18.38;38.61;92806.16;5015184;28;20210;-85
2024/03/11 12:06:03;;;;;;;0.80;0.80;;;;;;;17.71;37.68;92725.97;5014400;28;20362;-85
2024/03/11 12:08:32;;;;;;;1.48;0.80;;;;;;;17.29;38.61;92766.03;5014633;28;20218;-84
2024/03/11 12:11:14;;;;;;;0.82;0.70;;;;;;;17.10;39.11;92807.69;5014449;28;20230;-83
2024/03/11 12:13:43;;;;;;;1.38;0.90;;;;;;;17.25;39.42;92830.84;5013352;28;20286;-84
2024/03/11 12:16:20;;;;;;;13.93;11.18;;;;;;;17.64;39.99;92896.53;5017743;28;20559;-84
2024/03/11 12:18:59;;;;;;;14.57;12.60;;;;;;;18.05;39.54;92888.81;5025949;28;20214;-85
2024/03/11 12:21:27;;;;;;;1.33;1.23;;;;;;;18.35;38.31;92822.34;5033560;28;20202;-84
2024/03/11 12:23:56;;;;;;;1.08;0.80;;;;;;;18.57;38.42;92822.41;5033110;28;20205;-84
2024/03/11 12:26:22;;;;;;;1.35;0.80;;;;;;;18.34;37.89;92763.50;5033256;28;20206;-85
2024/03/11 12:29:03;;;;;;;1.45;0.80;;;;;;;18.28;37.59;92750.59;5024663;28;20295;-84
2024/03/11 12:31:32;;;;;;;0.65;0.60;;;;;;;18.22;37.17;92730.16;5034354;28;20217;-84
2024/03/11 12:34:00;;;;;;;0.82;0.80;;;;;;;18.03;37.29;92716.50;5033939;28;20207;-84
2024/03/11 12:36:27;;;;;;;0.52;0.52;;;;;;;17.82;37.79;92745.56;5033548;28;20208;-84
2024/03/11 12:38:55;;;;;;;0.73;0.60;;;;;;;17.81;38.36;92788.25;5033635;28;20218;-84
2024/03/11 12:41:38;;;;;;;0.60;0.60;;;;;;;17.58;37.99;92760.56;5035305;28;20213;-84
2024/03/11 12:44:12;;;;;;;0.88;0.60;;;;;;;17.50;37.94;92748.25;5034248;28;20213;-84
2024/03/11 12:46:40;;;;;;;1.63;0.85;;;;;;;17.19;39.13;92798.16;5034901;28;20252;-85
2024/03/11 12:49:07;;;;;;;1.00;0.88;;;;;;;16.97;39.37;92828.41;5024355;28;20313;-85
2024/03/11 12:51:34;;;;;;;0.70;0.70;;;;;;;16.93;39.58;92854.22;5014654;28;20218;-85
2024/03/11 12:54:12;;;;;;;0.50;0.50;;;;;;;17.00;39.03;92823.41;5015081;28;20287;-83
2024/03/11 12:56:39;;;;;;;10.25;8.95;;;;;;;17.18;39.07;92846.00;5014865;28;20314;-83
2024/03/11 12:59:13;;;;;;;3.00;2.75;;;;;;;17.14;38.70;92806.03;5014710;28;20226;-84
2024/03/11 13:01:41;;;;;;;0.95;0.95;;;;;;;17.07;38.74;92805.66;5013094;28;20610;-84
2024/03/11 13:04:16;;;;;;;1.63;0.73;;;;;;;17.09;38.99;92819.13;5013398;28;20261;-85
2024/03/11 13:06:43;;;;;;;0.60;0.60;;;;;;;16.69;39.18;92814.53;5014290;28;20202;-84
2024/03/11 13:09:24;;;;;;;1.15;0.65;;;;;;;16.58;39.48;92856.19;5014903;28;20207;-84
2024/03/11 13:11:54;;;;;;;0.70;0.70;;;;;;;16.64;40.21;92888.13;5019819;28;20608;-84
2024/03/11 13:14:21;;;;;;;1.10;0.60;;;;;;;16.56;40.12;92881.69;5014131;28;20198;-84
2024/03/11 13:16:48;;;;;;;0.55;0.50;;;;;;;16.55;39.41;92837.78;5014428;28;20522;-84
2024/03/11 13:19:14;;;;;;;4.70;0.82;;;;;;;16.45;39.55;92832.75;5013468;28;20360;-84
2024/03/11 13:21:43;;;;;;;0.80;0.70;;;;;;;16.39;39.63;92847.63;5014147;28;20635;-85
2024/03/11 13:24:11;;;;;;;0.65;0.65;;;;;;;16.40;39.48;92832.81;5015195;28;20203;-85
2024/03/11 13:26:40;;;;;;;0.68;0.68;;;;;;;16.49;39.63;92831.91;5031636;28;20194;-85
2024/03/11 13:29:09;;;;;;;1.63;0.60;;;;;;;16.54;39.62;92847.44;5033874;28;20320;-83
2024/03/11 13:31:40;;;;;;;1.15;0.70;;;;;;;16.51;39.97;92883.59;5033136;28;20229;-84
2024/03/11 13:34:08;;;;;;;0.60;0.60;;;;;;;16.50;40.28;92892.41;5031391;28;20264;-84
2024/03/11 13:36:35;;;;;;;0.60;0.60;;;;;;;16.71;40.58;92922.31;5034020;28;20273;-84
2024/03/11 13:39:09;;;;;;;1.88;0.82;;;;;;;16.93;39.54;92862.00;5033321;28;20225;-84
2024/03/11 13:41:42;;;;;;;11.88;10.57;;;;;;;17.14;39.14;92839.06;5034404;28;20282;-85
2024/03/11 13:44:11;;;;;;;4.47;4.07;;;;;;;16.99;39.07;92831.50;5034701;28;20314;-84
2024/03/11 13:46:43;;;;;;;1.45;0.75;;;;;;;16.57;39.22;92814.91;5033559;28;20206;-85
2024/03/11 13:49:10;;;;;;;0.70;0.68;;;;;;;16.40;40.33;92884.75;5024049;28;20234;-84
2024/03/11 13:51:37;;;;;;;2.10;0.70;;;;;;;16.47;40.50;92906.72;5014457;28;20296;-85
2024/03/11 13:54:04;;;;;;;0.75;0.60;;;;;;;16.45;39.81;92864.69;5012700;28;20230;-84
2024/03/11 13:56:31;;;;;;;2.83;0.70;;;;;;;16.51;39.51;92850.59;5014784;28;20214;-84
2024/03/11 13:59:00;;;;;;;0.90;0.70;;;;;;;16.47;39.80;92869.59;5016565;28;20258;-84
2024/03/11 14:01:26;;;;;;;4.53;0.93;;;;;;;16.29;40.53;92906.69;5017733;28;20218;-84
2024/03/11 14:03:52;;;;;;;2.38;0.60;;;;;;;16.28;39.99;92881.78;5017284;28;20198;-84
2024/03/11 14:06:19;;;;;;;0.63;0.60;;;;;;;16.32;39.55;92855.00;5017377;28;20595;-84
2024/03/11 14:08:45;;;;;;;0.70;0.70;;;;;;;16.49;39.31;92846.72;5020734;28;20650;-85
2024/03/11 14:11:12;;;;;;;0.82;0.77;;;;;;;16.57;39.98;92869.47;5035893;28;20724;-85
2024/03/11 14:13:39;;;;;;;11.25;10.15;;;;;;;16.64;40.09;92888.13;5016161;28;20199;-85
2024/03/11 14:16:11;;;;;;;6.40;5.88;;;;;;;16.58;40.23;92915.16;5015311;28;20214;-84
2024/03/11 14:18:38;;;;;;;1.40;1.30;;;;;;;16.47;40.38;92922.31;5016988;28;20233;-84
2024/03/11 14:21:08;;;;;;;0.65;0.65;;;;;;;16.40;40.67;92937.44;5030518;28;20191;-85
2024/03/11 14:23:34;;;;;;;2.38;0.68;;;;;;;16.37;40.77;92953.56;5014250;28;20233;-85
2024/03/11 14:26:02;;;;;;;0.77;0.70;;;;;;;16.35;41.07;92963.50;5014519;28;20214;-84
2024/03/11 14:28:28;;;;;;;0.60;0.60;;;;;;;16.27;41.16;92958.13;5013128;28;20235;-85
2024/03/11 14:30:56;;;;;;;0.60;0.60;;;;;;;16.22;40.61;92936.34;5013838;28;20238;-85
2024/03/11 14:33:23;;;;;;;2.83;0.70;;;;;;;15.79;40.32;92896.53;5013038;28;20202;-85
2024/03/11 14:35:50;;;;;;;0.75;0.60;;;;;;;15.61;40.42;92902.41;5014321;28;20226;-84
2024/03/11 14:38:16;;;;;;;0.95;0.65;;;;;;;15.48;40.81;92924.56;5014285;28;20577;-85
2024/03/11 14:40:44;;;;;;;1.95;0.63;;;;;;;15.18;41.36;92933.34;5014068;28;20207;-84
2024/03/11 14:43:12;;;;;;;1.42;0.82;;;;;;;15.29;41.67;92965.13;5013648;28;20207;-84
2024/03/11 14:45:40;;;;;;;1.25;0.77;;;;;;;15.44;41.50;92979.81;5013981;28;20294;-84
2024/03/11 14:48:12;;;;;;;0.90;0.80;;;;;;;15.53;41.61;93001.53;5012188;28;20223;-84
2024/03/11 14:50:42;;;;;;;1.08;0.82;;;;;;;15.63;41.51;92982.56;5013090;28;20304;-85
2024/03/11 14:53:08;;;;;;;1.20;1.10;;;;;;;15.61;41.03;92953.50;5014475;28;20238;-84
2024/03/11 14:55:40;;;;;;;1.02;0.93;;;;;;;15.50;41.31;92958.75;5005223;28;20612;-84
2024/03/11 14:58:08;;;;;;;1.73;0.90;;;;;;;15.47;42.09;93003.38;5012362;28;20230;-84
2024/03/11 15:00:35;;;;;;;0.52;0.52;;;;;;;15.57;42.19;93023.31;5012959;28;20202;-85
2024/03/11 15:03:02;;;;;;;1.52;0.65;;;;;;;15.63;42.09;93037.00;5012704;28;20358;-84
2024/03/11 15:05:29;;;;;;;1.08;0.95;;;;;;;15.56;42.00;93021.78;5024640;28;20202;-84
2024/03/11 15:07:57;;;;;;;3.30;0.73;;;;;;;15.52;41.54;92990.38;5053379;28;20910;-86
2024/03/11 15:10:32;;;;;;;1.92;0.70;;;;;;;15.59;41.84;93007.50;5054416;28;20221;-84
2024/03/11 15:12:58;;;;;;;2.30;0.65;;;;;;;15.63;41.81;93016.25;5023644;28;20244;-85
2024/03/11 15:15:25;;;;;;;2.90;0.90;;;;;;;15.63;42.01;93006.66;5019401;28;20206;-84
2024/03/11 15:17:52;;;;;;;0.80;0.60;;;;;;;15.58;41.72;93011.13;5025280;28;20245;-84
2024/03/11 15:20:18;;;;;;;0.65;0.65;;;;;;;15.57;42.03;93015.53;5033430;28;20618;-85
2024/03/11 15:22:48;;;;;;;0.60;0.60;;;;;;;15.60;41.89;93014.22;5031811;28;20273;-84
2024/03/11 15:25:17;;;;;;;1.00;0.80;;;;;;;15.63;42.16;93024.81;5032881;28;20217;-85
2024/03/11 15:27:45;;;;;;;2.35;0.65;;;;;;;15.59;41.83;93023.06;5032406;28;20305;-84
2024/03/11 15:30:12;;;;;;;0.85;0.70;;;;;;;15.54;41.85;93014.22;5031754;28;20252;-84
2024/03/11 15:32:39;;;;;;;0.70;0.70;;;;;;;15.56;42.01;93024.38;5031983;28;20233;-85
2024/03/11 15:35:07;;;;;;;0.50;0.50;;;;;;;15.59;41.92;93023.06;5031244;28;20244;-84
2024/03/11 15:37:36;;;;;;;0.70;0.70;;;;;;;15.50;41.45;92987.28;5032694;28;20226;-84
2024/03/11 15:40:04;;;;;;;1.10;0.80;;;;;;;15.52;41.62;93008.53;5032594;28;20205;-84
2024/03/11 15:42:34;;;;;;;0.47;0.47;;;;;;;15.57;41.96;93032.94;5032708;28;20209;-84
2024/03/11 15:45:01;;;;;;;0.82;0.80;;;;;;;15.58;41.61;93021.50;5031858;28;20558;-84
2024/03/11 15:47:27;;;;;;;0.73;0.60;;;;;;;15.61;41.42;92998.38;5031593;28;20656;-85
2024/03/11 15:49:55;;;;;;;1.10;0.60;;;;;;;15.69;41.42;93003.00;5015793;28;20249;-85
2024/03/11 15:52:21;;;;;;;0.60;0.60;;;;;;;15.60;41.50;93004.59;5011611;28;20281;-84
2024/03/11 15:54:48;;;;;;;0.80;0.60;;;;;;;15.51;41.94;93039.91;5011328;28;20203;-85
2024/03/11 15:57:15;;;;;;;1.10;1.00;;;;;;;15.51;42.28;93053.66;5010495;28;20250;-85
2024/03/11 15:59:43;;;;;;;2.03;1.70;;;;;;;15.55;42.12;93069.47;5011200;28;20203;-84
2024/03/11 16:02:09;;;;;;;1.42;1.20;;;;;;;15.50;42.31;93072.84;5023989;28;20194;-84
2024/03/11 16:04:36;;;;;;;1.27;1.00;;;;;;;15.42;42.58;93083.78;5031042;28;20234;-84
2024/03/11 16:07:04;;;;;;;3.33;1.27;;;;;;;15.40;42.54;93090.28;5030623;28;20202;-84
2024/03/11 16:12:14;;;;;;;1.30;0.80;;;;;;;15.30;43.24;93139.59;5027340;28;20717;-85
2024/03/11 16:14:39;;;;;;;1.58;0.80;;;;;;;15.26;43.21;93141.16;5022841;28;20252;-85
2024/03/11 16:17:07;;;;;;;2.05;0.90;;;;;;;15.19;43.44;93159.59;5032062;28;20226;-84
2024/03/11 16:19:33;;;;;;;0.70;0.70;;;;;;;15.19;43.60;93160.38;5030981;28;20677;-84
2024/03/11 16:21:59;;;;;;;1.02;0.70;;;;;;;15.21;43.60;93179.00;5031611;28;20213;-85
2024/03/11 16:24:26;;;;;;;0.70;0.68;;;;;;;15.23;44.18;93198.69;5031584;28;20257;-84
2024/03/11 16:26:52;;;;;;;2.53;0.73;;;;;;;15.16;44.37;93222.31;5030436;28;20197;-85
2024/03/11 16:29:18;;;;;;;1.30;0.70;;;;;;;15.15;44.23;93229.31;5030911;28;20743;-85
2024/03/11 16:31:45;;;;;;;1.08;0.85;;;;;;;15.14;44.30;93217.41;5031554;28;20232;-85
2024/03/11 16:34:15;;;;;;;2.90;0.80;;;;;;;15.10;43.88;93225.94;5029746;28;20206;-84
2024/03/11 16:36:42;;;;;;;0.77;0.60;;;;;;;15.03;43.71;93199.53;5030530;28;20233;-85
2024/03/11 16:39:08;;;;;;;0.50;0.50;;;;;;;15.00;43.60;93197.47;5030651;28;20773;-84
2024/03/11 16:41:34;;;;;;;0.50;0.50;;;;;;;14.95;43.75;93197.47;5030005;28;20237;-84
2024/03/11 16:44:01;;;;;;;1.60;0.70;;;;;;;14.92;43.81;93203.94;5030772;28;20909;-85
2024/03/11 16:46:29;;;;;;;0.75;0.63;;;;;;;14.90;43.64;93213.03;5032233;28;20270;-85
2024/03/11 16:48:55;;;;;;;0.93;0.55;;;;;;;14.84;44.05;93223.38;5023649;28;20221;-84
2024/03/11 16:51:22;;;;;;;1.38;0.70;;;;;;;14.77;44.24;93241.00;5011966;28;20229;-84
2024/03/11 16:53:49;;;;;;;3.22;0.80;;;;;;;14.72;44.51;93259.13;5012189;28;20209;-85
2024/03/11 16:56:16;;;;;;;1.50;0.73;;;;;;;14.70;44.30;93270.78;5011800;28;20203;-84
2024/03/11 16:58:42;;;;;;;5.50;1.40;;;;;;;14.68;44.72;93273.63;5025310;28;20217;-85
2024/03/11 17:01:08;;;;;;;2.95;1.92;;;;;;;14.68;44.66;93285.81;5030320;28;20197;-84
2024/03/11 17:03:35;;;;;;;5.78;2.30;;;;;;;14.66;44.78;93299.00;5030572;28;20496;-84
2024/03/11 17:06:01;;;;;;;3.17;2.15;;;;;;;14.65;44.52;93286.31;5031137;28;20229;-85
2024/03/11 17:08:29;;;;;;;6.65;2.20;;;;;;;14.64;45.09;93313.25;5031912;28;20249;-85
2024/03/11 17:10:56;;;;;;;3.90;2.28;;;;;;;14.62;44.92;93320.53;5024057;28;20268;-84
2024/03/11 17:13:23;;;;;;;6.05;1.80;;;;;;;14.56;44.93;93319.72;5013689;28;20214;-84
2024/03/11 17:15:49;;;;;;;2.38;1.20;;;;;;;14.53;45.14;93346.13;5011849;28;20226;-84
2024/03/11 17:18:20;;;;;;;2.03;1.20;;;;;;;14.51;45.57;93363.72;5012414;28;20313;-85
2024/03/11 17:20:50;;;;;;;3.97;1.05;;;;;;;14.51;45.78;93381.84;5014150;28;20215;-85
2024/03/11 17:23:22;;;;;;;1.00;0.90;;;;;;;14.48;45.71;93395.28;5013480;28;20304;-84
2024/03/11 17:25:51;;;;;;;2.70;0.90;;;;;;;14.46;45.92;93394.75;5011537;28;20572;-85
2024/03/11 17:28:18;;;;;;;4.20;0.95;;;;;;;14.46;45.63;93394.75;5011331;28;20237;-84
2024/03/11 17:30:46;;;;;;;5.57;1.30;;;;;;;14.45;45.68;93386.22;5013090;28;20585;-85
2024/03/11 17:33:13;;;;;;;2.28;1.00;;;;;;;14.42;45.64;93391.94;5014787;28;20294;-87
2024/03/11 17:35:44;;;;;;;1.52;0.95;;;;;;;14.40;45.67;93394.00;5015022;28;20668;-84
2024/03/11 17:38:11;;;;;;;1.30;1.15;;;;;;;14.38;45.71;93400.41;5015300;28;20230;-85
2024/03/11 17:40:38;;;;;;;3.50;1.27;;;;;;;14.33;45.81;93401.16;5015682;28;20237;-87
2024/03/11 17:43:07;;;;;;;4.70;1.15;;;;;;;14.31;45.41;93394.69;5016035;28;20210;-85
2024/03/11 17:45:34;;;;;;;2.47;1.02;;;;;;;14.25;45.71;93400.84;5014692;28;20199;-84
2024/03/11 17:48:01;;;;;;;1.45;1.20;;;;;;;14.21;45.87;93425.72;5014548;28;20215;-87
2024/03/11 17:50:31;;;;;;;2.55;1.30;;;;;;;14.16;46.14;93449.75;5033373;28;20206;-87
2024/03/11 17:52:58;;;;;;;3.53;1.30;;;;;;;14.16;46.61;93465.28;5036906;28;20222;-84
2024/03/11 17:55:26;;;;;;;3.22;1.40;;;;;;;14.16;46.78;93488.56;5000225;28;20206;-85
2024/03/11 17:57:54;;;;;;;7.85;3.50;;;;;;;14.13;47.18;93509.75;5014455;28;20315;-85
2024/03/11 18:00:27;;;;;;;3.55;2.72;;;;;;;14.05;46.91;93498.06;5014468;28;20205;-85
2024/03/11 18:02:55;;;;;;;3.75;1.60;;;;;;;13.93;46.46;93470.81;5015487;28;20265;-84
2024/03/11 18:05:21;;;;;;;2.50;1.40;;;;;;;13.88;46.53;93475.94;5026269;28;20198;-85
2024/03/11 18:07:47;;;;;;;2.45;1.50;;;;;;;13.79;46.86;93486.75;5032752;28;20218;-83
2024/03/11 18:10:15;;;;;;;3.47;1.30;;;;;;;13.80;46.69;93492.72;5034188;28;20676;-84
2024/03/11 18:12:43;;;;;;;2.45;1.45;;;;;;;13.82;46.57;93494.03;5021231;28;20303;-84
2024/03/11 18:15:09;;;;;;;1.50;1.40;;;;;;;13.82;46.76;93516.53;5014186;28;20203;-84
2024/03/11 18:17:37;;;;;;;3.33;1.60;;;;;;;13.72;47.11;93532.72;5013197;28;20288;-85
2024/03/11 18:20:10;;;;;;;4.38;1.70;;;;;;;13.71;47.19;93545.91;5014054;28;20863;-85
2024/03/11 18:22:39;;;;;;;2.03;1.17;;;;;;;13.67;47.44;93545.59;5013202;28;20667;-84
2024/03/11 18:25:08;;;;;;;3.10;2.10;;;;;;;13.69;47.32;93553.91;5012957;28;20270;-86
2024/03/11 18:27:34;;;;;;;4.40;2.30;;;;;;;13.68;47.54;93575.63;5012932;28;20231;-87
2024/03/11 18:30:00;;;;;;;3.05;2.30;;;;;;;13.72;47.95;93604.34;5012704;28;20289;-83
2024/03/11 18:32:28;;;;;;;13.15;11.75;;;;;;;13.74;48.52;93639.31;5014350;28;20317;-84
2024/03/11 18:34:54;;;;;;;4.32;3.25;;;;;;;13.61;48.15;93616.41;5013683;28;20234;-84
2024/03/11 18:37:21;;;;;;;4.68;3.85;;;;;;;13.41;48.07;93604.06;5014360;28;20234;-85
2024/03/11 18:39:47;;;;;;;4.78;3.13;;;;;;;13.44;48.23;93624.25;5013513;28;20214;-87
2024/03/11 18:42:14;;;;;;;6.63;3.10;;;;;;;13.48;48.11;93630.47;5011787;28;20230;-87
2024/03/11 18:44:40;;;;;;;5.88;4.57;;;;;;;13.49;48.65;93647.56;5012262;28;20203;-87
2024/03/11 18:47:08;;;;;;;9.10;6.97;;;;;;;13.54;48.08;93625.38;5011978;28;20687;-87
2024/03/11 18:49:35;;;;;;;12.13;7.00;;;;;;;13.53;48.08;93632.34;5013381;28;20213;-87
2024/03/11 18:52:03;;;;;;;15.32;11.23;;;;;;;13.52;48.12;93653.28;5046926;28;20260;-87
2024/03/11 18:54:30;;;;;;;5.15;3.90;;;;;;;13.54;48.26;93646.84;5051584;28;20267;-87
2024/03/11 18:57:02;;;;;;;5.68;3.50;;;;;;;13.55;48.60;93663.13;5051393;28;20205;-85
2024/03/11 18:59:29;;;;;;;4.93;3.75;;;;;;;13.58;48.82;93683.34;5051160;28;20201;-87
2024/03/11 19:01:57;;;;;;;7.50;4.05;;;;;;;13.59;49.09;93703.78;5029023;28;20261;-87
2024/03/11 19:04:23;;;;;;;4.93;2.92;;;;;;;13.58;49.54;93735.84;5026250;28;20198;-86
2024/03/11 19:06:50;;;;;;;6.43;3.23;;;;;;;13.58;50.23;93776.41;5031344;28;20557;-86
2024/03/11 19:09:19;;;;;;;6.33;2.40;;;;;;;13.54;50.35;93803.78;5032619;28;20206;-86
2024/03/11 19:11:48;;;;;;;4.50;3.17;;;;;;;13.48;50.17;93792.56;5027557;28;20298;-86
2024/03/11 19:14:15;;;;;;;5.05;3.13;;;;;;;13.34;49.36;93732.69;5012123;28;20198;-86
2024/03/11 19:16:42;;;;;;;2.97;2.00;;;;;;;13.18;49.00;93705.06;5012495;28;20596;-87
2024/03/11 19:19:08;;;;;;;2.60;2.00;;;;;;;13.12;49.12;93708.56;5012506;28;20222;-87
2024/03/11 19:21:38;;;;;;;3.13;2.30;;;;;;;13.14;49.02;93722.81;5012557;28;20600;-86
2024/03/11 19:24:06;;;;;;;3.30;1.83;;;;;;;13.15;48.90;93726.22;5012443;28;20735;-86
2024/03/11 19:26:34;;;;;;;1.70;1.60;;;;;;;13.20;49.02;93728.09;5012151;28;20290;-87
2024/03/11 19:29:02;;;;;;;3.47;2.07;;;;;;;13.26;49.16;93740.84;5011333;28;20297;-88
2024/03/11 19:31:28;;;;;;;2.97;1.90;;;;;;;13.27;48.88;93734.66;5012391;28;20314;-86
2024/03/11 19:33:55;;;;;;;3.43;2.20;;;;;;;13.29;48.97;93724.06;5011235;28;20203;-86
2024/03/11 19:36:47;;;;;;;1.90;1.70;;;;;;;13.28;48.85;93733.63;5013282;28;20443;-88
2024/03/11 19:39:31;;;;;;;2.10;1.90;;;;;;;13.31;48.98;93740.91;5012860;28;20245;-86
2024/03/11 19:42:13;;;;;;;3.13;1.93;;;;;;;13.34;49.12;93761.09;5012935;28;20198;-87
2024/03/11 19:44:56;;;;;;;4.57;2.90;;;;;;;13.35;49.13;93770.44;5011731;28;20210;-86
2024/03/11 19:47:54;;;;;;;3.85;3.45;;;;;;;13.35;49.63;93796.28;5035793;28;20707;-87
2024/03/11 19:51:06;;;;;;;4.35;3.28;;;;;;;13.35;49.83;93800.66;5032524;28;20202;-86
2024/03/11 19:54:10;;;;;;;21.35;14.27;;;;;;;13.33;49.95;93823.38;5032614;28;20233;-87
2024/03/11 19:57:20;;;;;;;16.30;12.67;;;;;;;13.26;50.08;93849.41;5032149;28;20288;-86
2024/03/11 20:00:26;;;;;;;6.57;5.53;;;;;;;13.08;50.41;93867.69;5023297;28;20747;-86
2024/03/11 20:03:15;;;;;;;4.13;3.70;;;;;;;13.04;50.33;93869.16;5031655;28;20711;-87
2024/03/11 20:06:25;;;;;;;3.93;2.70;;;;;;;13.01;50.05;93862.66;5031608;28;20268;-87
2024/03/11 20:09:27;;;;;;;3.70;3.10;;;;;;;12.98;50.71;93878.63;5031430;28;20229;-87
2024/03/11 20:12:25;;;;;;;29.67;24.63;;;;;;;12.87;51.10;93892.38;5025570;28;20276;-87
2024/03/11 20:14:54;;;;;;;16.45;11.73;;;;;;;12.91;50.67;93882.34;5011356;28;20239;-86
2024/03/11 20:17:41;;;;;;;7.80;6.27;;;;;;;12.92;50.64;93882.13;5011466;28;20219;-86
2024/03/11 20:20:30;;;;;;;7.87;6.23;;;;;;;12.91;50.65;93893.47;5011236;28;20628;-86
2024/03/11 20:23:23;;;;;;;11.52;8.07;;;;;;;12.85;51.08;93903.97;5011763;28;20232;-86
2024/03/11 20:26:07;;;;;;;6.10;4.37;;;;;;;12.85;50.71;93888.47;5011928;28;20203;-85
2024/03/11 20:28:42;;;;;;;3.07;2.63;;;;;;;12.77;50.48;93887.81;5031343;28;20230;-84
2024/03/11 20:31:13;;;;;;;2.83;2.60;;;;;;;12.76;50.29;93894.00;5031947;28;20232;-84
2024/03/11 20:33:42;;;;;;;3.80;2.33;;;;;;;12.76;50.50;93888.03;5029785;28;20850;-85
2024/03/11 20:36:11;;;;;;;2.47;2.10;;;;;;;12.76;50.02;93898.38;5030534;28;20212;-86
2024/03/11 20:38:38;;;;;;;4.17;2.00;;;;;;;12.77;50.04;93903.31;5031093;28;20218;-85
2024/03/11 20:41:05;;;;;;;2.53;2.03;;;;;;;12.77;50.22;93905.88;5030324;28;20206;-85
2024/03/11 20:43:31;;;;;;;3.33;2.20;;;;;;;12.78;50.16;93893.75;5043352;28;20270;-86
2024/03/11 20:45:58;;;;;;;2.60;2.03;;;;;;;12.76;50.11;93898.38;5049720;28;20252;-85
2024/03/11 20:48:26;;;;;;;4.47;2.10;;;;;;;12.71;50.27;93913.75;5047583;28;20692;-85
2024/03/11 20:50:53;;;;;;;3.70;2.67;;;;;;;12.72;50.53;93921.28;5030951;28;20292;-85
2024/03/11 20:53:23;;;;;;;2.40;2.05;;;;;;;12.70;50.53;93930.28;5040743;28;20723;-86